• Join FlightAware (Why Join?)
  • Login
  • US Flag 
09:58PM EDT


 

Airport Tracker/Info


-or-


 

Live Flight TrackerFlight Track Log ✈ DAL6035 ✈ 18-Apr-2013 ✈ KLGA - KMHT

Flight Track Log - Related Links

Times and Time Zones

All times are in EDT time to prevent confusion due to time zone crossing. See the DAL6035 flight status page for this flight to view local times or setup timezone preferences in your user account.

Time Position Orientation Groundspeed Altitude Reporting Facility
EDT Latitude Longitude Course Direction KTS MPH feet Rate Location/Type
11:52AM 40.7500 -73.8167 37° Northeast 160 184 2,100  Level New York TRACON
11:53AM 40.8000 -73.7667 37° Northeast 246 283 4,200 2,280 Climbing New York TRACON
11:55AM 41.1253 -73.5891 28° Northeast  Level FlightAware Approximate
11:56AM 41.2128 -73.5139 33° Northeast  Level FlightAware Approximate
11:56AM 40.9269 -73.8081 346° North 216 249 9,900  Level Boston Center
11:57AM 41.3022 -73.4430 27° Northeast  Level FlightAware Approximate
11:57AM 40.9803 -73.7131 53° Northeast 218 251 11,000  Level Boston Center
11:58AM 41.3825 -73.3842 37° Northeast  Level FlightAware Approximate
11:58AM 41.0600 -73.6514 30° Northeast 308 354 11,800  Level Boston Center
11:59AM 41.1506 -73.5786 31° Northeast 345 397 14,000 1,860 Climbing Boston Center
12:00PM 41.2281 -73.5192 30° Northeast 350 403 15,600 1,620 Climbing Boston Center
12:01PM 41.3247 -73.4406 31° Northeast 361 415 17,200 1,380 Climbing Boston Center
12:02PM 41.4192 -73.3647 31° Northeast 379 436 18,400 1,260 Climbing Boston Center
12:03PM 41.5094 -73.2828 34° Northeast 385 443 19,800 1,200 Climbing Boston Center
12:04PM 41.5767 -73.1894 46° Northeast 385 443 20,900 540 Climbing Boston Center
12:05PM 41.6772 -73.1183 28° Northeast 390 449 21,000  Climbing Boston Center
12:06PM 41.7856 -73.1333 354° North 367 422 21,000  Level Boston Center
12:07PM 41.8917 -73.1539 352° North 372 428 21,000  Level Boston Center
12:08PM 42.0000 -73.1719 353° North 382 440 21,000  Level Boston Center
12:09PM 42.1269 -73.1931 353° North 382 440 21,000  Level Boston Center
12:10PM 42.2331 -73.2111 353° North 387 445 21,000 -120 Level Boston Center
12:11PM 42.3442 -73.1311 28° Northeast 387 445 20,800 -780 Descending Boston Center
12:12PM 42.4114 -73.0025 55° Northeast 379 436 19,500 -900 Descending Boston Center
12:13PM 42.4767 -72.8819 54° Northeast 385 443 19,000 -300 Descending Boston Center
12:14PM 42.5353 -72.7753 53° Northeast 390 449 19,000  Level Boston Center
12:15PM 42.6067 -72.6431 54° Northeast 390 449 19,000 -720 Level Boston Center
12:16PM 42.6858 -72.4994 53° Northeast 390 449 17,300 -1,980 Descending Boston Center
12:17PM 42.7589 -72.3608 54° Northeast 385 443 14,700 -2,460 Descending Boston Center
12:18PM 42.8003 -72.2336 66° East 375 432 12,500 -2,100 Descending Boston Center
12:19PM 42.8106 -72.1006 84° East 352 405 10,600 -1,680 Descending Boston Center
12:20PM 42.8183 -71.9844 85° East 330 380 9,100 -1,080 Descending Boston Center
12:21PM 42.8450 -71.8794 71° East 292 336 8,500 -1,080 Descending Boston Center
12:22PM 42.8967 -71.7997 48° Northeast 279 321 7,000 -1,680 Descending Boston Center
12:23PM 42.9506 -71.7253 45° Northeast 273 314 5,200 -1,320 Descending Boston Center
12:24PM 42.9936 -71.6481 53° Northeast 258 297 4,400 -900 Descending Boston Center
12:25PM 43.0222 -71.5767 61° Northeast 225 259 3,400 -1,020 Descending Boston Center
12:26PM 43.0344 -71.5056 77° East 207 238 2,400 -1,020 Descending Boston Center